Main page
METAR-TAF:

METAR-TAF

Airports :

Cristiano Ronaldo International Airport

Funchal, Madeira, Portugal

latitude: 32-41-52N, longitude: 016-46-28W, elevation: 59 m

Current weather observation

The report was made 19 minutes ago, at 01:30 UTC
Wind 10 kt from the North/Northeast
Temperature 19°C
Humidity 68%
Pressure 1020 hPa
Visibility 10 km or more
no clouds below 1500 m and no cumulonimbus

METAR: LPMA 130130Z 02010KT CAVOK 19/13 Q1020

Time: 02:49 (01:49 UTC)

Forecast

The report was made 2 hours and 49 minutes ago, at 23:00 UTC
Forecast valid from 13 at 00 UTC to 13 at 24 UTC
Wind 10 kt from the North
Visibility 10 km or more
Few clouds at a height of 1500 ft
Becoming
from 13 at 08 UTC to 13 at 10 UTC
Wind 15 kt from the North/Northeast

TAF: LPMA 122300Z 1300/1324 36010KT 9999 FEW015 BECMG 1308/1310 03015KT

Weather observations and forecasts of more than 4000 airports (METAR and TAF reports).

The available stations are represented by yellow and red dots on the map.

Hover mouse over dot to see the name of the station.

Then click to see weather observations and forecasts.

To change the map : click on the green buttons with a black cross to zoom in, on the green button with a dash to zoom out, or on the green arrows for adjacent maps.


METAR-TAF: